Time;durP1;ratioP1;P1;durP2;ratioP2;P2;SDS_P1;SDS_P2;PMS_P1;PMS_P2;Temp;Humidity;BMP_temperature;BMP_pressure;BME280_temperature;BME280_humidity;BME280_pressure;Samples;Min_cycle;Max_cycle;Signal;HPM_P1;HPM_P2
2020/12/18 00:00:14;;;;;;;116.12;58.23;;;;;;;1.10;81.58;95236.85;1727995;83;21058;-55
2020/12/18 00:02:42;;;;;;;93.85;48.63;;;;;;;1.13;81.64;95248.29;1697402;84;21370;-54
2020/12/18 00:05:11;;;;;;;83.12;43.80;;;;;;;1.13;81.26;95242.28;1727888;83;21110;-55
2020/12/18 00:07:39;;;;;;;88.20;50.00;;;;;;;1.02;81.25;95240.64;1697343;84;21152;-55
2020/12/18 00:10:09;;;;;;;80.45;43.83;;;;;;;0.94;81.37;95243.86;1728048;83;21621;-55
2020/12/18 00:12:37;;;;;;;80.85;40.55;;;;;;;0.94;81.64;95241.74;1697362;84;21081;-54
2020/12/18 00:15:06;;;;;;;76.42;40.15;;;;;;;0.95;81.64;95243.30;1727925;83;22364;-54
2020/12/18 00:17:34;;;;;;;77.78;43.40;;;;;;;0.90;81.68;95244.41;1697290;84;21113;-55
2020/12/18 00:20:06;;;;;;;84.62;43.10;;;;;;;0.89;82.10;95249.62;1727967;83;21079;-56
2020/12/18 00:22:34;;;;;;;81.57;43.45;;;;;;;0.99;82.25;95242.75;1697437;84;21509;-55
2020/12/18 00:25:02;;;;;;;83.78;45.75;;;;;;;1.07;82.27;95238.94;1727943;81;21130;-54
2020/12/18 00:27:30;;;;;;;84.52;46.42;;;;;;;1.23;82.49;95238.09;1699249;83;21604;-55
2020/12/18 00:29:59;;;;;;;86.63;45.98;;;;;;;1.40;82.51;95249.65;1733380;82;21161;-56
2020/12/18 00:32:27;;;;;;;79.37;43.08;;;;;;;1.48;82.08;95249.33;1733508;82;21519;-55
2020/12/18 00:34:55;;;;;;;90.57;45.25;;;;;;;1.49;81.67;95251.47;1733500;82;21107;-55
2020/12/18 00:37:24;;;;;;;107.37;52.08;;;;;;;1.50;81.56;95247.01;1733448;82;21070;-55
2020/12/18 00:39:53;;;;;;;138.37;58.65;;;;;;;1.59;81.88;95243.97;1733392;82;21264;-54
2020/12/18 00:42:21;;;;;;;92.37;44.88;;;;;;;1.71;82.00;95251.21;1733329;82;21209;-54
2020/12/18 00:44:49;;;;;;;84.03;44.13;;;;;;;1.85;81.70;95248.59;1733382;82;21109;-55
2020/12/18 00:47:18;;;;;;;89.45;45.65;;;;;;;1.84;80.94;95247.03;1733418;82;21092;-55
2020/12/18 00:49:46;;;;;;;77.15;40.33;;;;;;;1.76;80.65;95246.81;1733415;81;21091;-56
2020/12/18 00:52:14;;;;;;;89.40;46.73;;;;;;;1.72;80.60;95239.20;1733535;81;22144;-55
2020/12/18 00:54:43;;;;;;;88.87;46.77;;;;;;;1.63;80.36;95245.55;1733318;81;21150;-54
2020/12/18 00:57:12;;;;;;;82.95;46.48;;;;;;;1.55;80.46;95235.83;1733410;82;21534;-54
2020/12/18 00:59:41;;;;;;;84.10;46.05;;;;;;;1.55;80.67;95245.33;1704954;82;21165;-54
2020/12/18 01:02:11;;;;;;;94.00;46.73;;;;;;;1.51;80.67;95235.02;1704474;82;21142;-54
2020/12/18 01:04:39;;;;;;;86.50;44.35;;;;;;;1.52;80.75;95239.87;1733484;82;22104;-54
2020/12/18 01:07:08;;;;;;;91.78;47.83;;;;;;;1.58;81.09;95239.14;1733307;81;21091;-54
2020/12/18 01:09:36;;;;;;;107.03;52.00;;;;;;;1.67;80.74;95234.73;1733402;82;21059;-55
2020/12/18 01:12:05;;;;;;;100.80;48.95;;;;;;;1.61;80.22;95240.30;1733402;82;21058;-54
2020/12/18 01:14:34;;;;;;;112.15;55.43;;;;;;;1.42;79.92;95234.58;1733419;82;21070;-55
2020/12/18 01:17:02;;;;;;;123.78;61.18;;;;;;;1.26;80.02;95235.98;1733511;82;22086;-54
2020/12/18 01:19:31;;;;;;;125.30;62.48;;;;;;;1.15;80.27;95231.08;1733312;82;21133;-55
2020/12/18 01:22:00;;;;;;;115.60;55.08;;;;;;;1.10;80.54;95237.61;1733367;81;21137;-54
2020/12/18 01:24:30;;;;;;;130.50;62.98;;;;;;;1.08;80.57;95235.06;1731674;82;21153;-54
2020/12/18 01:26:59;;;;;;;111.37;56.00;;;;;;;1.03;80.57;95237.57;1733537;82;21110;-54
2020/12/18 01:29:28;;;;;;;139.55;63.17;;;;;;;1.03;80.76;95242.20;1747106;82;21380;-55
2020/12/18 01:31:56;;;;;;;140.20;66.15;;;;;;;1.01;80.97;95229.05;1747026;82;21092;-54
2020/12/18 01:34:25;;;;;;;142.22;66.70;;;;;;;1.14;81.11;95226.81;1747042;82;21100;-54
2020/12/18 01:36:54;;;;;;;136.47;62.23;;;;;;;1.25;81.13;95229.02;1747073;82;21063;-54
2020/12/18 01:39:27;;;;;;;;;;;;;;;1.38;80.99;95231.63;1747994;82;21500;-54
2020/12/18 01:41:55;;;;;;;136.62;67.17;;;;;;;1.45;80.56;95228.95;1747099;82;21204;-55
2020/12/18 01:44:24;;;;;;;144.47;71.15;;;;;;;1.53;80.63;95234.64;1746951;82;21088;-54
2020/12/18 01:46:54;;;;;;;128.50;64.42;;;;;;;1.51;80.31;95230.94;1747028;82;21120;-54
2020/12/18 01:49:22;;;;;;;108.75;58.78;;;;;;;1.56;80.52;95233.32;1747059;82;21107;-55
2020/12/18 01:51:51;;;;;;;109.22;56.98;;;;;;;1.67;80.06;95235.50;1747073;82;21158;-55
2020/12/18 01:54:22;;;;;;;94.20;49.75;;;;;;;1.68;79.51;95231.63;1743513;82;21455;-54
2020/12/18 01:56:51;;;;;;;101.40;53.73;;;;;;;1.58;79.27;95231.01;1746999;82;21131;-55
2020/12/18 01:59:21;;;;;;;96.32;53.10;;;;;;;1.44;79.28;95232.27;1746560;82;21183;-55
2020/12/18 02:01:59;;;;;;;109.72;56.45;;;;;;;1.42;79.62;95233.22;1873666;76;22204;-54
2020/12/18 02:04:40;;;;;;;100.80;57.05;;;;;;;1.32;79.46;95229.84;1840785;77;21085;-54
2020/12/18 02:07:08;;;;;;;97.55;53.38;;;;;;;1.25;79.81;95230.37;1811817;78;21225;-54
2020/12/18 02:09:39;;;;;;;111.95;59.67;;;;;;;1.24;79.66;95230.95;1840535;78;20958;-55
2020/12/18 02:12:09;;;;;;;136.68;66.45;;;;;;;1.21;79.96;95235.78;1841592;78;20908;-54
2020/12/18 02:14:39;;;;;;;121.02;65.28;;;;;;;1.26;79.94;95231.36;1841091;78;20907;-54
2020/12/18 02:17:07;;;;;;;106.35;57.78;;;;;;;1.30;79.75;95225.38;1841684;78;21045;-54
2020/12/18 02:19:38;;;;;;;123.33;65.57;;;;;;;1.30;79.57;95230.80;1840965;78;21428;-55
2020/12/18 02:22:15;;;;;;;138.70;69.55;;;;;;;1.25;79.66;95232.52;1841239;77;21060;-55
2020/12/18 02:24:59;;;;;;;131.63;69.10;;;;;;;1.28;79.72;95227.69;1840989;78;21127;-55
2020/12/18 02:27:28;;;;;;;128.62;65.57;;;;;;;1.31;79.45;95229.64;1811429;78;21046;-55
2020/12/18 02:29:58;;;;;;;128.97;67.70;;;;;;;1.28;79.25;95226.34;1841700;78;21061;-55
2020/12/18 02:32:27;;;;;;;123.42;63.58;;;;;;;1.24;79.35;95232.31;1811240;78;21089;-54
2020/12/18 02:34:57;;;;;;;160.52;78.40;;;;;;;1.29;79.65;95231.95;1840418;78;21066;-55
2020/12/18 02:37:27;;;;;;;189.07;98.80;;;;;;;1.34;79.48;95234.31;1840955;78;21050;-54
2020/12/18 02:39:59;;;;;;;194.37;100.50;;;;;;;1.36;79.20;95231.23;1833356;77;21204;-55
2020/12/18 02:42:49;;;;;;;149.55;74.32;;;;;;;1.32;78.96;95235.27;1890077;75;22192;-55
2020/12/18 02:45:19;;;;;;;150.55;77.32;;;;;;;1.12;78.61;95232.59;1860980;77;21068;-54
2020/12/18 02:47:59;;;;;;;150.32;77.53;;;;;;;0.97;79.00;95234.98;1822461;77;21492;-55
2020/12/18 02:50:29;;;;;;;146.28;70.05;;;;;;;0.97;79.30;95237.69;1859351;77;21074;-55
2020/12/18 02:53:02;;;;;;;146.35;78.05;;;;;;;0.99;79.29;95240.80;1860947;77;20910;-55
2020/12/18 02:55:49;;;;;;;163.68;89.50;;;;;;;1.04;79.57;95241.83;1860989;77;20990;-55
2020/12/18 02:58:22;;;;;;;168.97;91.42;;;;;;;1.15;79.45;95237.27;1794162;77;21148;-54
2020/12/18 03:00:51;;;;;;;149.65;81.87;;;;;;;1.18;79.21;95241.16;1860456;77;21192;-55
2020/12/18 03:03:22;;;;;;;151.02;73.25;;;;;;;1.14;79.05;95230.29;1861030;77;21168;-54
2020/12/18 03:05:53;;;;;;;137.37;73.67;;;;;;;1.08;79.02;95238.57;1860873;77;20997;-54
2020/12/18 03:08:26;;;;;;;147.45;80.10;;;;;;;1.06;79.25;95231.40;1860491;77;21072;-54
2020/12/18 03:10:56;;;;;;;124.78;68.67;;;;;;;1.11;79.47;95239.17;1859878;77;21116;-54
2020/12/18 03:13:24;;;;;;;125.58;69.22;;;;;;;1.16;79.20;95238.81;1860918;77;21408;-54
2020/12/18 03:15:55;;;;;;;133.10;70.32;;;;;;;1.19;79.26;95238.09;1860847;77;21168;-56
2020/12/18 03:18:25;;;;;;;140.43;75.87;;;;;;;1.27;79.27;95234.27;1860652;77;21573;-55
2020/12/18 03:20:55;;;;;;;114.45;61.92;;;;;;;1.35;79.06;95235.09;1861000;77;21498;-55
2020/12/18 03:23:31;;;;;;;168.75;91.00;;;;;;;1.37;78.65;95240.36;1856092;77;21175;-55
2020/12/18 03:26:11;;;;;;;152.93;85.60;;;;;;;1.28;78.29;95241.24;1859021;77;21359;-55
2020/12/18 03:28:41;;;;;;;121.02;64.27;;;;;;;1.20;78.29;95242.92;1854190;77;21068;-56
2020/12/18 03:31:11;;;;;;;133.82;71.45;;;;;;;1.13;78.14;95252.36;1860883;77;21112;-56
2020/12/18 03:33:39;;;;;;;134.40;70.80;;;;;;;0.97;78.22;95247.17;1861011;77;21480;-55
2020/12/18 03:36:29;;;;;;;123.72;67.10;;;;;;;0.94;78.83;95249.87;1859984;77;21044;-55
2020/12/18 03:38:59;;;;;;;122.75;64.67;;;;;;;0.93;78.68;95258.55;1860931;77;21356;-55
2020/12/18 03:41:29;;;;;;;126.10;70.15;;;;;;;0.89;78.76;95256.39;1831688;77;21068;-55
2020/12/18 03:43:58;;;;;;;128.12;69.32;;;;;;;0.88;78.82;95261.61;1830368;78;21080;-56
2020/12/18 03:46:27;;;;;;;105.63;59.42;;;;;;;0.93;79.19;95255.84;1830357;78;21064;-55
2020/12/18 03:49:06;;;;;;;120.95;67.27;;;;;;;0.94;78.75;95254.69;1829007;78;21477;-55
2020/12/18 03:51:39;;;;;;;118.45;63.48;;;;;;;0.82;78.64;95250.92;1829371;78;21198;-56
2020/12/18 03:54:08;;;;;;;125.82;66.90;;;;;;;0.77;79.15;95246.42;1829719;78;21070;-54
2020/12/18 03:56:50;;;;;;;116.10;65.75;;;;;;;0.84;79.40;95258.66;1873640;75;22688;-54
2020/12/18 03:59:20;;;;;;;130.35;72.25;;;;;;;0.77;79.02;95251.24;1840638;78;21454;-55
2020/12/18 04:01:56;;;;;;;114.50;64.00;;;;;;;0.75;79.18;95259.55;1839573;77;21411;-54
2020/12/18 04:04:24;;;;;;;146.70;79.30;;;;;;;0.79;79.00;95258.41;1841603;77;21529;-54
2020/12/18 04:06:54;;;;;;;141.88;79.55;;;;;;;0.76;79.19;95254.34;1841595;77;21569;-55
2020/12/18 04:09:24;;;;;;;139.57;77.25;;;;;;;0.78;79.10;95253.39;1841556;78;21002;-56
2020/12/18 04:11:54;;;;;;;136.97;75.62;;;;;;;0.80;79.18;95253.20;1840626;78;20990;-54
2020/12/18 04:14:27;;;;;;;128.27;75.30;;;;;;;0.81;78.96;95255.34;1839506;77;23589;-55
2020/12/18 04:16:57;;;;;;;141.12;73.55;;;;;;;0.81;79.02;95256.11;1840362;77;21156;-56
2020/12/18 04:19:26;;;;;;;142.47;79.85;;;;;;;0.83;79.29;95255.19;1841584;78;21010;-55
2020/12/18 04:21:55;;;;;;;137.60;72.70;;;;;;;0.90;79.10;95257.95;1811338;78;21089;-55
2020/12/18 04:24:37;;;;;;;128.15;72.15;;;;;;;0.87;78.69;95264.12;1770127;78;21037;-55
2020/12/18 04:27:06;;;;;;;123.95;68.30;;;;;;;0.84;79.04;95265.43;1811288;78;21395;-55
2020/12/18 04:29:35;;;;;;;117.28;63.78;;;;;;;0.88;78.90;95265.67;1841574;78;21680;-55
2020/12/18 04:32:04;;;;;;;119.53;67.35;;;;;;;0.81;78.37;95271.00;1841536;78;21108;-55
2020/12/18 04:34:33;;;;;;;122.67;66.40;;;;;;;0.71;78.52;95266.28;1841487;78;21101;-54
2020/12/18 04:37:06;;;;;;;123.67;67.50;;;;;;;0.71;78.87;95271.69;1814755;77;21069;-55
2020/12/18 04:39:53;;;;;;;129.10;73.22;;;;;;;0.75;78.79;95279.27;1834362;78;21325;-54
2020/12/18 04:42:23;;;;;;;137.07;75.80;;;;;;;0.75;78.55;95274.45;1808471;79;21133;-54
2020/12/18 04:44:51;;;;;;;132.43;72.67;;;;;;;0.67;78.64;95273.59;1779252;79;21576;-55
2020/12/18 04:47:21;;;;;;;117.97;64.25;;;;;;;0.68;79.01;95283.27;1779913;79;21073;-54
2020/12/18 04:49:49;;;;;;;112.30;62.30;;;;;;;0.66;78.80;95280.72;1808518;79;21082;-54
2020/12/18 04:52:20;;;;;;;126.35;67.67;;;;;;;0.60;79.10;95284.33;1808261;78;21186;-55
2020/12/18 04:54:50;;;;;;;117.57;68.15;;;;;;;0.62;79.39;95284.73;1808364;79;21129;-54
2020/12/18 04:57:35;;;;;;;126.97;72.22;;;;;;;0.73;79.42;95282.92;1890049;76;22490;-56
2020/12/18 05:00:06;;;;;;;149.82;81.25;;;;;;;0.73;79.68;95281.57;1827839;77;21045;-55
2020/12/18 05:02:53;;;;;;;141.65;79.92;;;;;;;0.83;79.62;95282.83;1861007;77;21352;-54
2020/12/18 05:05:22;;;;;;;133.75;72.60;;;;;;;0.94;79.47;95279.66;1776359;77;20938;-55
2020/12/18 05:07:52;;;;;;;122.35;68.33;;;;;;;0.96;79.11;95282.77;1859447;77;21498;-54
2020/12/18 05:10:21;;;;;;;102.02;59.67;;;;;;;0.99;79.42;95280.07;1860955;77;20926;-55
2020/12/18 05:13:04;;;;;;;110.52;63.87;;;;;;;1.13;79.39;95290.28;1890056;76;23193;-54
2020/12/18 05:15:34;;;;;;;114.88;65.08;;;;;;;1.13;79.47;95291.64;1827397;77;21052;-54
2020/12/18 05:18:05;;;;;;;101.12;58.75;;;;;;;1.22;79.28;95294.80;1855834;77;21479;-55
2020/12/18 05:20:34;;;;;;;114.08;62.80;;;;;;;1.30;79.25;95298.55;1861008;77;21092;-54
2020/12/18 05:23:16;;;;;;;109.15;62.53;;;;;;;1.31;78.63;95304.17;1859716;77;21053;-55
2020/12/18 05:25:50;;;;;;;123.28;65.05;;;;;;;1.31;78.76;95302.05;1853282;77;21151;-55
2020/12/18 05:28:21;;;;;;;118.80;71.17;;;;;;;1.35;78.43;95305.56;1861169;77;21565;-54
2020/12/18 05:30:55;;;;;;;112.42;64.07;;;;;;;1.35;78.05;95306.33;1860917;77;21251;-53
2020/12/18 05:33:40;;;;;;;124.40;68.07;;;;;;;1.29;78.26;95301.06;1816522;77;21068;-53
2020/12/18 05:36:26;;;;;;;161.32;84.32;;;;;;;1.32;78.21;95304.38;1857958;77;21045;-53
2020/12/18 05:38:56;;;;;;;125.80;69.60;;;;;;;1.35;78.21;95301.50;1861038;77;21576;-53
2020/12/18 05:41:26;;;;;;;105.27;62.20;;;;;;;1.42;77.92;95301.55;1828886;77;21128;-52
2020/12/18 05:43:55;;;;;;;98.97;56.68;;;;;;;1.43;77.64;95304.45;1827199;78;21476;-53
2020/12/18 05:46:42;;;;;;;78.30;47.73;;;;;;;1.44;77.50;95304.09;1827109;78;21089;-52
2020/12/18 05:49:31;;;;;;;77.72;46.35;;;;;;;1.49;77.28;95310.52;1826464;78;21588;-53
2020/12/18 05:52:02;;;;;;;84.97;50.03;;;;;;;1.45;77.09;95308.92;1826738;78;21061;-52
2020/12/18 05:54:44;;;;;;;88.97;50.08;;;;;;;1.47;77.02;95308.76;1825832;78;21056;-51
2020/12/18 05:57:14;;;;;;;83.78;51.25;;;;;;;1.41;76.71;95316.25;1827159;78;21263;-53
2020/12/18 05:59:48;;;;;;;86.10;52.78;;;;;;;1.35;76.91;95320.47;1825967;78;21068;-52
2020/12/18 06:02:26;;;;;;;93.15;52.83;;;;;;;1.38;76.97;95315.66;1873638;75;22191;-55
2020/12/18 06:05:05;;;;;;;83.65;54.20;;;;;;;1.35;77.04;95319.88;1840791;78;21077;-54
2020/12/18 06:07:37;;;;;;;117.17;62.95;;;;;;;1.38;76.99;95316.45;1838741;78;21258;-53
2020/12/18 06:10:13;;;;;;;154.27;83.75;;;;;;;1.41;76.89;95321.11;1840862;78;21014;-55
2020/12/18 06:12:43;;;;;;;128.60;70.00;;;;;;;1.38;77.03;95319.16;1837907;77;21077;-54
2020/12/18 06:15:13;;;;;;;100.05;60.00;;;;;;;1.45;76.96;95320.56;1841538;78;21163;-55
2020/12/18 06:17:45;;;;;;;84.10;54.48;;;;;;;1.51;76.78;95318.28;1811377;78;20943;-53
2020/12/18 06:20:15;;;;;;;125.40;70.12;;;;;;;1.58;76.71;95319.13;1811299;78;21362;-54
2020/12/18 06:23:00;;;;;;;131.12;72.42;;;;;;;1.56;75.97;95320.08;1812218;78;20903;-55
2020/12/18 06:25:46;;;;;;;135.68;74.10;;;;;;;1.45;76.06;95322.47;1837366;78;21089;-54
2020/12/18 06:28:22;;;;;;;145.57;79.45;;;;;;;1.41;75.92;95319.75;1837518;78;21089;-54
2020/12/18 06:31:25;;;;;;;134.67;76.60;;;;;;;1.30;75.78;95314.05;1839269;78;21466;-55
2020/12/18 06:34:26;;;;;;;159.03;82.85;;;;;;;1.22;76.26;95314.56;1841474;78;22043;-54
2020/12/18 06:37:00;;;;;;;137.43;78.78;;;;;;;1.29;76.65;95318.67;1807162;78;21262;-55
2020/12/18 06:39:47;;;;;;;156.50;95.57;;;;;;;1.40;76.55;95317.41;1843496;76;21256;-55
2020/12/18 06:42:32;;;;;;;127.25;77.37;;;;;;;1.60;76.24;95310.03;1755989;79;22204;-55
2020/12/18 06:45:19;;;;;;;122.45;76.72;;;;;;;1.55;75.80;95315.81;1732370;82;21606;-57
2020/12/18 06:47:50;;;;;;;123.60;74.85;;;;;;;1.53;75.69;95318.09;1740059;82;21371;-54
2020/12/18 06:50:37;;;;;;;131.25;81.42;;;;;;;1.53;75.81;95315.97;1733707;82;21595;-57
2020/12/18 06:53:24;;;;;;;142.70;79.92;;;;;;;1.60;75.97;95323.59;1736389;82;21147;-56
2020/12/18 06:56:02;;;;;;;224.45;113.45;;;;;;;1.74;76.02;95312.26;1889886;76;22322;-55
2020/12/18 06:58:35;;;;;;;317.25;147.35;;;;;;;1.75;75.67;95319.83;1849790;77;21171;-55
2020/12/18 07:01:03;;;;;;;246.00;129.97;;;;;;;1.73;75.41;95318.05;1831714;77;21600;-54
2020/12/18 07:06:28;;;;;;;133.15;77.47;;;;;;;1.93;75.70;95323.44;1878770;76;22763;-51
2020/12/18 07:08:56;;;;;;;148.13;85.92;;;;;;;1.87;75.41;95327.64;1822725;77;21592;-51
2020/12/18 07:11:24;;;;;;;119.95;71.25;;;;;;;1.92;75.55;95328.67;1826021;77;21352;-56
2020/12/18 07:13:55;;;;;;;88.03;55.80;;;;;;;2.03;75.26;95329.50;1807064;77;21157;-54
2020/12/18 07:16:26;;;;;;;90.28;56.42;;;;;;;2.12;75.27;95334.78;1794143;78;21509;-55
2020/12/18 07:18:59;;;;;;;110.22;59.63;;;;;;;2.24;75.08;95330.97;1753537;78;21163;-55
2020/12/18 07:21:27;;;;;;;;;;;;;;;2.34;75.03;95326.95;1823744;77;21713;-53
2020/12/18 07:23:56;;;;;;;150.00;81.65;;;;;;;2.48;74.75;95324.31;1821058;77;21199;-54
2020/12/18 07:26:24;;;;;;;119.70;72.67;;;;;;;2.48;74.45;95327.63;1827581;76;21087;-55
2020/12/18 07:28:53;;;;;;;69.07;43.40;;;;;;;2.53;74.45;95321.81;1828270;77;21063;-52
2020/12/18 07:31:24;;;;;;;62.13;40.85;;;;;;;2.57;74.40;95319.89;1803940;78;21600;-51
2020/12/18 07:33:56;;;;;;;87.70;52.60;;;;;;;2.60;74.37;95323.19;1761167;81;21100;-52
2020/12/18 07:36:31;;;;;;;89.70;55.80;;;;;;;2.69;74.14;95324.98;1744360;81;22265;-55
2020/12/18 07:39:00;;;;;;;93.52;56.65;;;;;;;2.68;73.87;95328.87;1750857;81;21170;-54
2020/12/18 07:41:33;;;;;;;91.12;53.58;;;;;;;2.60;73.96;95325.34;1747969;81;21572;-52
2020/12/18 07:44:05;;;;;;;81.50;53.45;;;;;;;2.56;74.07;95330.55;1751373;80;21163;-53
2020/12/18 07:46:34;;;;;;;68.42;42.03;;;;;;;2.52;74.31;95331.13;1835403;77;21182;-53
2020/12/18 07:49:12;;;;;;;69.20;40.80;;;;;;;2.51;74.30;95335.77;1815813;77;21200;-51
2020/12/18 07:51:42;;;;;;;62.27;37.63;;;;;;;2.49;74.36;95331.89;1844961;77;21068;-55
2020/12/18 07:54:20;;;;;;;55.83;36.35;;;;;;;2.47;74.40;95343.13;1847122;77;21040;-53
2020/12/18 07:56:48;;;;;;;49.98;32.65;;;;;;;2.45;74.69;95347.36;1821926;77;21099;-53
2020/12/18 07:59:17;;;;;;;48.20;31.95;;;;;;;2.52;74.81;95336.55;1799872;78;21175;-53
2020/12/18 08:01:46;;;;;;;55.58;31.93;;;;;;;2.54;74.86;95336.95;1762498;80;21212;-55
2020/12/18 08:04:15;;;;;;;59.77;37.05;;;;;;;2.59;75.04;95336.58;1703782;80;22005;-53
2020/12/18 08:06:43;;;;;;;60.75;40.43;;;;;;;2.66;75.06;95338.73;1787112;79;21212;-57
2020/12/18 08:09:19;;;;;;;55.60;36.17;;;;;;;2.73;75.27;95344.79;1800672;79;21147;-53
2020/12/18 08:11:50;;;;;;;56.73;33.42;;;;;;;2.85;75.34;95345.22;1796042;79;21181;-55
2020/12/18 08:14:19;;;;;;;72.62;43.52;;;;;;;2.98;74.98;95345.64;1800878;78;22381;-54
2020/12/18 08:16:48;;;;;;;54.38;34.35;;;;;;;3.01;74.77;95350.30;1793601;78;21744;-53
2020/12/18 08:19:19;;;;;;;47.30;29.87;;;;;;;3.09;74.81;95357.33;1800148;79;21200;-53
2020/12/18 08:21:48;;;;;;;46.18;29.05;;;;;;;3.15;74.87;95353.06;1799825;79;21224;-53
2020/12/18 08:24:33;;;;;;;49.85;30.40;;;;;;;3.22;74.74;95354.45;1801176;79;21718;-54
2020/12/18 08:27:12;;;;;;;46.68;31.42;;;;;;;3.18;74.72;95355.80;1791605;79;22184;-55
2020/12/18 08:29:53;;;;;;;57.45;36.15;;;;;;;3.22;74.78;95357.17;1797650;79;22290;-56
2020/12/18 08:32:31;;;;;;;40.50;27.50;;;;;;;3.24;74.84;95352.89;1807178;79;21183;-52
2020/12/18 08:35:05;;;;;;;44.50;29.57;;;;;;;3.32;74.76;95361.27;1791307;79;21205;-57
2020/12/18 08:37:34;;;;;;;44.00;31.55;;;;;;;3.39;74.56;95356.43;1788241;79;21182;-54
2020/12/18 08:40:20;;;;;;;46.18;32.08;;;;;;;3.42;74.47;95366.53;1792338;78;21278;-56
2020/12/18 08:43:01;;;;;;;46.40;31.23;;;;;;;3.50;74.41;95371.00;1784438;79;21246;-53
2020/12/18 08:45:29;;;;;;;54.30;34.55;;;;;;;3.53;74.23;95374.30;1796527;79;21194;-51
2020/12/18 08:47:58;;;;;;;65.30;41.40;;;;;;;3.63;74.04;95373.55;1796389;79;21209;-53
2020/12/18 08:50:28;;;;;;;51.13;33.60;;;;;;;3.72;73.79;95364.41;1783040;79;21189;-54
2020/12/18 08:53:00;;;;;;;50.70;35.17;;;;;;;3.82;73.62;95363.64;1786492;79;21391;-53
2020/12/18 08:55:29;;;;;;;48.08;33.15;;;;;;;3.96;73.31;95367.73;1756033;79;21149;-54
2020/12/18 08:57:57;;;;;;;41.83;30.17;;;;;;;4.19;73.16;95376.83;1797675;79;21209;-51
2020/12/18 09:00:25;;;;;;;48.55;33.10;;;;;;;4.46;72.51;95376.01;1734375;79;21593;-52
2020/12/18 09:02:57;;;;;;;47.60;33.40;;;;;;;4.74;72.10;95376.52;1780067;78;21739;-52
2020/12/18 09:05:31;;;;;;;34.33;24.45;;;;;;;4.95;71.27;95375.87;1820680;77;21369;-54
2020/12/18 09:08:07;;;;;;;49.00;32.55;;;;;;;5.07;70.56;95374.64;1795034;77;21193;-52
2020/12/18 09:10:43;;;;;;;60.92;43.28;;;;;;;5.05;69.84;95376.42;1804599;78;21122;-53
2020/12/18 09:13:20;;;;;;;59.93;40.00;;;;;;;4.99;69.48;95380.71;1806689;78;21495;-53
2020/12/18 09:15:50;;;;;;;51.45;34.88;;;;;;;4.93;69.20;95385.03;1804028;77;21123;-55
2020/12/18 09:18:23;;;;;;;44.27;28.87;;;;;;;4.95;68.93;95390.09;1760235;79;22145;-52
2020/12/18 09:20:52;;;;;;;40.40;30.20;;;;;;;4.87;68.78;95392.07;1740838;81;22280;-54
2020/12/18 09:23:32;;;;;;;46.33;33.20;;;;;;;4.81;68.87;95384.09;1751616;81;21127;-50
2020/12/18 09:26:02;;;;;;;55.78;40.08;;;;;;;4.89;68.31;95385.64;1753467;80;21150;-56
2020/12/18 09:28:41;;;;;;;56.88;36.28;;;;;;;4.94;68.13;95382.49;1744321;80;21193;-52
2020/12/18 09:31:11;;;;;;;46.23;32.67;;;;;;;4.96;67.82;95384.23;1765043;79;21351;-53
2020/12/18 09:33:42;;;;;;;31.95;23.32;;;;;;;4.92;67.76;95386.20;1725883;81;21542;-50
2020/12/18 09:36:15;;;;;;;32.60;23.38;;;;;;;4.91;67.66;95386.02;1718692;81;21222;-54
2020/12/18 09:38:46;;;;;;;32.65;23.35;;;;;;;4.90;67.64;95379.01;1760006;80;21654;-54
2020/12/18 09:41:18;;;;;;;48.15;33.10;;;;;;;4.84;67.54;95375.14;1750636;80;21195;-52
2020/12/18 09:43:47;;;;;;;37.55;26.90;;;;;;;4.78;67.60;95382.16;1727194;81;22106;-52
2020/12/18 09:46:18;;;;;;;34.58;24.60;;;;;;;4.78;67.06;95382.76;1764591;80;21204;-56
2020/12/18 09:48:47;;;;;;;26.20;20.08;;;;;;;4.75;67.12;95385.67;1741652;80;21170;-52
2020/12/18 09:51:16;;;;;;;29.77;21.25;;;;;;;4.74;66.75;95381.97;1756818;80;21252;-52
2020/12/18 09:53:46;;;;;;;27.15;20.45;;;;;;;4.69;66.99;95381.81;1728294;82;21192;-57
2020/12/18 09:56:14;;;;;;;27.62;21.37;;;;;;;4.71;67.20;95391.73;1754611;81;22209;-52
2020/12/18 09:58:45;;;;;;;30.60;19.35;;;;;;;4.74;66.97;95384.13;1773468;80;21574;-56
2020/12/18 10:01:16;;;;;;;22.37;17.60;;;;;;;4.70;67.11;95383.36;1766607;80;21450;-51
2020/12/18 10:03:46;;;;;;;25.80;19.73;;;;;;;4.61;67.38;95382.98;1760305;80;21153;-54
2020/12/18 10:06:15;;;;;;;20.92;17.65;;;;;;;4.57;67.61;95376.77;1775064;79;21194;-59
2020/12/18 10:08:46;;;;;;;23.65;17.57;;;;;;;4.63;67.71;95376.55;1789654;79;22326;-55
2020/12/18 10:11:17;;;;;;;25.85;18.35;;;;;;;4.64;67.49;95375.98;1764243;80;21213;-56
2020/12/18 10:13:47;;;;;;;21.40;17.30;;;;;;;4.64;67.61;95380.83;1756905;80;22165;-55
2020/12/18 10:16:16;;;;;;;29.48;20.92;;;;;;;4.64;67.53;95379.47;1774152;80;21216;-52
2020/12/18 10:18:44;;;;;;;67.60;38.38;;;;;;;4.68;67.57;95374.81;1766826;80;21151;-51
2020/12/18 10:21:13;;;;;;;37.65;25.65;;;;;;;4.71;67.47;95382.77;1764306;80;22273;-56
2020/12/18 10:23:42;;;;;;;55.95;35.40;;;;;;;4.74;67.53;95384.13;1773613;80;21107;-55
2020/12/18 10:26:10;;;;;;;64.80;43.25;;;;;;;4.78;67.21;95382.76;1771861;80;21141;-53
2020/12/18 10:28:40;;;;;;;51.10;35.15;;;;;;;4.78;67.04;95387.61;1767197;80;21142;-55
2020/12/18 10:31:09;;;;;;;45.12;31.87;;;;;;;4.87;66.70;95384.46;1767994;80;21135;-56
2020/12/18 10:33:38;;;;;;;36.68;26.57;;;;;;;4.86;66.65;95382.91;1754788;80;21207;-54
2020/12/18 10:36:09;;;;;;;36.20;26.27;;;;;;;4.86;66.91;95378.25;1764643;80;21147;-54
2020/12/18 10:38:37;;;;;;;43.00;27.98;;;;;;;4.94;67.27;95385.22;1731183;81;21239;-54
2020/12/18 10:41:08;;;;;;;42.05;28.65;;;;;;;5.09;66.79;95375.81;1762270;80;21178;-55
2020/12/18 10:43:37;;;;;;;31.45;20.65;;;;;;;5.23;66.58;95372.23;1757440;80;21183;-52
2020/12/18 10:46:06;;;;;;;27.58;18.05;;;;;;;5.43;66.61;95364.53;1758566;80;22202;-54
2020/12/18 10:48:36;;;;;;;22.67;17.90;;;;;;;5.56;66.19;95364.23;1734827;80;21131;-56
2020/12/18 10:51:04;;;;;;;57.85;34.03;;;;;;;5.74;66.18;95358.06;1762034;80;21154;-53
2020/12/18 10:53:33;;;;;;;44.88;30.37;;;;;;;5.97;65.04;95355.60;1750024;80;21504;-52
2020/12/18 10:56:02;;;;;;;33.05;23.30;;;;;;;6.06;64.56;95355.90;1760764;80;21185;-56
2020/12/18 10:58:31;;;;;;;23.30;18.27;;;;;;;6.06;64.10;95360.79;1748364;80;21382;-58
2020/12/18 11:01:00;;;;;;;21.70;17.30;;;;;;;6.03;64.12;95352.61;1767273;80;21160;-57
2020/12/18 11:03:30;;;;;;;24.98;18.32;;;;;;;6.06;64.58;95348.50;1782207;80;21131;-56
2020/12/18 11:06:06;;;;;;;20.68;16.48;;;;;;;6.33;64.13;95356.84;1769150;79;21194;-53
2020/12/18 11:08:35;;;;;;;20.23;15.28;;;;;;;6.64;64.01;95359.25;1834067;77;21181;-55
2020/12/18 11:11:03;;;;;;;23.73;15.78;;;;;;;7.06;63.09;95360.13;1844816;77;21208;-53
2020/12/18 11:13:33;;;;;;;22.67;17.90;;;;;;;7.43;62.33;95356.72;1848251;77;21172;-56
2020/12/18 11:16:03;;;;;;;23.98;17.27;;;;;;;7.65;61.60;95359.33;1848329;77;21227;-56
2020/12/18 11:18:34;;;;;;;26.48;18.92;;;;;;;7.80;60.96;95351.09;1848493;77;21130;-53
2020/12/18 11:21:04;;;;;;;22.30;17.52;;;;;;;7.99;59.96;95350.41;1848498;77;21590;-53
2020/12/18 11:23:35;;;;;;;27.73;17.67;;;;;;;8.28;59.01;95355.61;1848390;77;23663;-54
2020/12/18 11:26:03;;;;;;;21.55;16.55;;;;;;;8.71;58.91;95351.53;1848345;77;21563;-56
2020/12/18 11:28:32;;;;;;;22.15;15.98;;;;;;;8.96;57.82;95355.36;1848364;77;21111;-56
2020/12/18 11:31:00;;;;;;;25.82;16.27;;;;;;;8.94;57.60;95359.13;1848522;77;21179;-54
2020/12/18 11:33:29;;;;;;;26.70;19.32;;;;;;;8.85;57.23;95359.50;1827160;77;21119;-54
2020/12/18 11:35:58;;;;;;;22.30;17.42;;;;;;;8.60;56.99;95349.59;1816593;77;22340;-55
2020/12/18 11:38:27;;;;;;;26.77;18.98;;;;;;;8.29;56.85;95357.16;1814424;77;21183;-54
2020/12/18 11:40:56;;;;;;;32.60;19.40;;;;;;;7.97;57.71;95359.64;1818248;78;21059;-59
2020/12/18 11:43:24;;;;;;;24.00;16.12;;;;;;;7.84;58.18;95366.87;1823085;77;21156;-55
2020/12/18 11:45:52;;;;;;;25.10;18.20;;;;;;;7.84;58.45;95368.24;1851433;77;21107;-53